sensor_id;sensor_type;location;lat;lon;timestamp;temperature;humidity
16879;DHT22;8556;52.218;9.884;2023-02-15T00:02:01;1.10;99.90
16879;DHT22;8556;52.218;9.884;2023-02-15T00:04:28;1.30;99.90
16879;DHT22;8556;52.218;9.884;2023-02-15T00:07:12;1.40;99.90
16879;DHT22;8556;52.218;9.884;2023-02-15T00:09:39;1.60;99.90
16879;DHT22;8556;52.218;9.884;2023-02-15T00:12:06;1.50;99.90
16879;DHT22;8556;52.218;9.884;2023-02-15T00:14:33;1.40;99.90
16879;DHT22;8556;52.218;9.884;2023-02-15T00:17:01;1.30;99.90
16879;DHT22;8556;52.218;9.884;2023-02-15T00:19:28;1.20;99.90
16879;DHT22;8556;52.218;9.884;2023-02-15T00:21:55;1.20;99.90
16879;DHT22;8556;52.218;9.884;2023-02-15T00:24:22;1.30;99.90
16879;DHT22;8556;52.218;9.884;2023-02-15T00:26:48;1.10;99.90
16879;DHT22;8556;52.218;9.884;2023-02-15T00:29:17;1.00;99.90
16879;DHT22;8556;52.218;9.884;2023-02-15T00:31:44;0.80;99.90
16879;DHT22;8556;52.218;9.884;2023-02-15T00:34:13;1.00;99.90
16879;DHT22;8556;52.218;9.884;2023-02-15T00:36:40;0.90;99.90
16879;DHT22;8556;52.218;9.884;2023-02-15T00:39:07;0.90;99.90
16879;DHT22;8556;52.218;9.884;2023-02-15T00:41:34;0.90;99.90
16879;DHT22;8556;52.218;9.884;2023-02-15T00:44:02;0.70;99.90
16879;DHT22;8556;52.218;9.884;2023-02-15T00:46:28;0.60;99.90
16879;DHT22;8556;52.218;9.884;2023-02-15T00:48:55;0.90;99.90
16879;DHT22;8556;52.218;9.884;2023-02-15T00:51:24;0.80;99.90
16879;DHT22;8556;52.218;9.884;2023-02-15T00:53:51;0.80;99.90
16879;DHT22;8556;52.218;9.884;2023-02-15T00:56:18;0.70;99.90
16879;DHT22;8556;52.218;9.884;2023-02-15T00:58:45;0.70;99.90
16879;DHT22;8556;52.218;9.884;2023-02-15T01:01:14;0.60;99.90
16879;DHT22;8556;52.218;9.884;2023-02-15T01:03:42;0.50;99.90
16879;DHT22;8556;52.218;9.884;2023-02-15T01:06:09;0.60;99.90
16879;DHT22;8556;52.218;9.884;2023-02-15T01:08:37;0.70;99.90
16879;DHT22;8556;52.218;9.884;2023-02-15T01:11:05;0.60;99.90
16879;DHT22;8556;52.218;9.884;2023-02-15T01:13:32;0.80;99.90
16879;DHT22;8556;52.218;9.884;2023-02-15T01:15:59;0.80;99.90
16879;DHT22;8556;52.218;9.884;2023-02-15T01:18:26;0.90;99.90
16879;DHT22;8556;52.218;9.884;2023-02-15T01:20:53;0.80;99.90
16879;DHT22;8556;52.218;9.884;2023-02-15T01:23:20;0.70;99.90
16879;DHT22;8556;52.218;9.884;2023-02-15T01:25:49;1.00;99.90
16879;DHT22;8556;52.218;9.884;2023-02-15T01:28:15;1.00;99.90
16879;DHT22;8556;52.218;9.884;2023-02-15T01:30:42;0.90;99.90
16879;DHT22;8556;52.218;9.884;2023-02-15T01:33:10;1.10;99.90
16879;DHT22;8556;52.218;9.884;2023-02-15T01:35:43;1.00;99.90
16879;DHT22;8556;52.218;9.884;2023-02-15T01:38:11;0.80;99.90
16879;DHT22;8556;52.218;9.884;2023-02-15T01:40:38;0.60;99.90
16879;DHT22;8556;52.218;9.884;2023-02-15T01:43:10;0.50;99.90
16879;DHT22;8556;52.218;9.884;2023-02-15T01:45:37;0.70;99.90
16879;DHT22;8556;52.218;9.884;2023-02-15T01:48:08;0.60;99.90
16879;DHT22;8556;52.218;9.884;2023-02-15T01:50:42;0.60;99.90
16879;DHT22;8556;52.218;9.884;2023-02-15T01:53:15;0.70;99.90
16879;DHT22;8556;52.218;9.884;2023-02-15T01:55:48;0.80;99.90
16879;DHT22;8556;52.218;9.884;2023-02-15T01:58:18;0.80;99.90
16879;DHT22;8556;52.218;9.884;2023-02-15T02:00:46;0.80;99.90
16879;DHT22;8556;52.218;9.884;2023-02-15T02:03:13;0.70;99.90
16879;DHT22;8556;52.218;9.884;2023-02-15T02:05:41;0.80;99.90
16879;DHT22;8556;52.218;9.884;2023-02-15T02:08:08;0.60;99.90
16879;DHT22;8556;52.218;9.884;2023-02-15T02:10:35;0.50;99.90
16879;DHT22;8556;52.218;9.884;2023-02-15T02:13:03;0.60;99.90
16879;DHT22;8556;52.218;9.884;2023-02-15T02:15:38;0.70;99.90
16879;DHT22;8556;52.218;9.884;2023-02-15T02:18:15;0.50;99.90
16879;DHT22;8556;52.218;9.884;2023-02-15T02:23:51;0.30;99.90
16879;DHT22;8556;52.218;9.884;2023-02-15T02:27:02;0.40;99.90
16879;DHT22;8556;52.218;9.884;2023-02-15T02:35:43;0.50;99.90
16879;DHT22;8556;52.218;9.884;2023-02-15T02:38:17;0.40;99.90
16879;DHT22;8556;52.218;9.884;2023-02-15T02:40:54;0.50;99.90
16879;DHT22;8556;52.218;9.884;2023-02-15T02:43:28;0.30;99.90
16879;DHT22;8556;52.218;9.884;2023-02-15T02:45:59;0.10;99.90
16879;DHT22;8556;52.218;9.884;2023-02-15T02:48:30;0.20;99.90
16879;DHT22;8556;52.218;9.884;2023-02-15T02:50:59;0.20;99.90
16879;DHT22;8556;52.218;9.884;2023-02-15T02:53:27;-0.10;99.90
16879;DHT22;8556;52.218;9.884;2023-02-15T02:55:58;-0.20;99.90
16879;DHT22;8556;52.218;9.884;2023-02-15T02:58:31;-0.20;99.90
16879;DHT22;8556;52.218;9.884;2023-02-15T03:01:05;-0.10;99.90
16879;DHT22;8556;52.218;9.884;2023-02-15T03:03:35;-0.20;99.90
16879;DHT22;8556;52.218;9.884;2023-02-15T03:06:08;-0.20;99.90
16879;DHT22;8556;52.218;9.884;2023-02-15T03:08:39;-0.20;99.90
16879;DHT22;8556;52.218;9.884;2023-02-15T03:11:09;-0.20;99.90
16879;DHT22;8556;52.218;9.884;2023-02-15T03:13:37;-0.20;99.90
16879;DHT22;8556;52.218;9.884;2023-02-15T03:16:06;-0.10;99.90
16879;DHT22;8556;52.218;9.884;2023-02-15T03:18:53;0.10;99.90
16879;DHT22;8556;52.218;9.884;2023-02-15T03:21:31;0.00;99.90
16879;DHT22;8556;52.218;9.884;2023-02-15T03:24:02;0.00;99.90
16879;DHT22;8556;52.218;9.884;2023-02-15T03:26:30;0.10;99.90
16879;DHT22;8556;52.218;9.884;2023-02-15T03:28:59;-0.10;99.90
16879;DHT22;8556;52.218;9.884;2023-02-15T03:31:28;-0.10;99.90
16879;DHT22;8556;52.218;9.884;2023-02-15T03:34:00;-0.30;99.90
16879;DHT22;8556;52.218;9.884;2023-02-15T03:36:35;-0.30;99.90
16879;DHT22;8556;52.218;9.884;2023-02-15T03:39:09;-0.10;99.90
16879;DHT22;8556;52.218;9.884;2023-02-15T03:41:44;0.00;99.90
16879;DHT22;8556;52.218;9.884;2023-02-15T03:44:15;0.00;99.90
16879;DHT22;8556;52.218;9.884;2023-02-15T03:46:47;-0.10;99.90
16879;DHT22;8556;52.218;9.884;2023-02-15T03:49:18;0.10;99.90
16879;DHT22;8556;52.218;9.884;2023-02-15T03:51:50;0.00;99.90
16879;DHT22;8556;52.218;9.884;2023-02-15T03:54:21;-0.10;99.90
16879;DHT22;8556;52.218;9.884;2023-02-15T03:57:04;-0.20;99.90
16879;DHT22;8556;52.218;9.884;2023-02-15T03:59:48;-0.20;99.90
16879;DHT22;8556;52.218;9.884;2023-02-15T04:02:37;-0.20;99.90
16879;DHT22;8556;52.218;9.884;2023-02-15T04:05:05;-0.10;99.90
16879;DHT22;8556;52.218;9.884;2023-02-15T04:07:33;0.10;99.90
16879;DHT22;8556;52.218;9.884;2023-02-15T04:10:00;-0.10;99.90
16879;DHT22;8556;52.218;9.884;2023-02-15T04:12:44;-0.20;99.90
16879;DHT22;8556;52.218;9.884;2023-02-15T04:15:12;-0.30;99.90
16879;DHT22;8556;52.218;9.884;2023-02-15T04:17:56;-0.30;99.90
16879;DHT22;8556;52.218;9.884;2023-02-15T04:20:23;-0.30;99.90
16879;DHT22;8556;52.218;9.884;2023-02-15T04:23:09;-0.30;99.90
16879;DHT22;8556;52.218;9.884;2023-02-15T04:25:53;-0.30;99.90
16879;DHT22;8556;52.218;9.884;2023-02-15T04:28:20;-0.30;99.90
16879;DHT22;8556;52.218;9.884;2023-02-15T04:30:47;-0.20;99.90
16879;DHT22;8556;52.218;9.884;2023-02-15T04:33:13;-0.20;99.90
16879;DHT22;8556;52.218;9.884;2023-02-15T04:35:40;-0.20;99.90
16879;DHT22;8556;52.218;9.884;2023-02-15T04:38:08;-0.20;99.90
16879;DHT22;8556;52.218;9.884;2023-02-15T04:40:35;-0.20;99.90
16879;DHT22;8556;52.218;9.884;2023-02-15T04:43:02;-0.40;99.90
16879;DHT22;8556;52.218;9.884;2023-02-15T04:45:29;-0.50;99.90
16879;DHT22;8556;52.218;9.884;2023-02-15T04:47:55;-0.40;99.90
16879;DHT22;8556;52.218;9.884;2023-02-15T04:50:22;-0.30;99.90
16879;DHT22;8556;52.218;9.884;2023-02-15T04:52:49;-0.20;99.90
16879;DHT22;8556;52.218;9.884;2023-02-15T04:55:17;-0.10;99.90
16879;DHT22;8556;52.218;9.884;2023-02-15T04:57:44;0.00;99.90
16879;DHT22;8556;52.218;9.884;2023-02-15T05:02:39;0.00;99.90
16879;DHT22;8556;52.218;9.884;2023-02-15T05:05:06;0.20;99.90
16879;DHT22;8556;52.218;9.884;2023-02-15T05:07:34;0.30;99.90
16879;DHT22;8556;52.218;9.884;2023-02-15T05:10:01;0.20;99.90
16879;DHT22;8556;52.218;9.884;2023-02-15T05:12:29;0.10;99.90
16879;DHT22;8556;52.218;9.884;2023-02-15T05:14:56;0.10;99.90
16879;DHT22;8556;52.218;9.884;2023-02-15T05:17:23;0.20;99.90
16879;DHT22;8556;52.218;9.884;2023-02-15T05:19:50;0.10;99.90
16879;DHT22;8556;52.218;9.884;2023-02-15T05:22:16;0.00;99.90
16879;DHT22;8556;52.218;9.884;2023-02-15T05:24:43;0.00;99.90
16879;DHT22;8556;52.218;9.884;2023-02-15T05:27:30;0.10;99.90
16879;DHT22;8556;52.218;9.884;2023-02-15T05:30:14;0.00;99.90
16879;DHT22;8556;52.218;9.884;2023-02-15T05:32:41;0.00;99.90
16879;DHT22;8556;52.218;9.884;2023-02-15T05:35:12;0.00;99.90
16879;DHT22;8556;52.218;9.884;2023-02-15T05:37:39;0.00;99.90
16879;DHT22;8556;52.218;9.884;2023-02-15T05:40:07;0.20;99.90
16879;DHT22;8556;52.218;9.884;2023-02-15T05:42:35;0.10;99.90
16879;DHT22;8556;52.218;9.884;2023-02-15T05:45:02;0.10;99.90
16879;DHT22;8556;52.218;9.884;2023-02-15T05:47:29;0.10;99.90
16879;DHT22;8556;52.218;9.884;2023-02-15T05:49:56;0.10;99.90
16879;DHT22;8556;52.218;9.884;2023-02-15T05:52:23;0.10;99.90
16879;DHT22;8556;52.218;9.884;2023-02-15T05:54:50;0.30;99.90
16879;DHT22;8556;52.218;9.884;2023-02-15T05:57:16;0.20;99.90
16879;DHT22;8556;52.218;9.884;2023-02-15T05:59:44;0.10;99.90
16879;DHT22;8556;52.218;9.884;2023-02-15T06:02:11;0.10;99.90
16879;DHT22;8556;52.218;9.884;2023-02-15T06:04:38;-0.10;99.90
16879;DHT22;8556;52.218;9.884;2023-02-15T06:07:05;-0.10;99.90
16879;DHT22;8556;52.218;9.884;2023-02-15T06:09:32;-0.10;99.90
16879;DHT22;8556;52.218;9.884;2023-02-15T06:11:58;-0.20;99.90
16879;DHT22;8556;52.218;9.884;2023-02-15T06:14:25;-0.20;99.90
16879;DHT22;8556;52.218;9.884;2023-02-15T06:16:53;-0.30;99.90
16879;DHT22;8556;52.218;9.884;2023-02-15T06:19:20;-0.30;99.90
16879;DHT22;8556;52.218;9.884;2023-02-15T06:21:48;-0.40;99.90
16879;DHT22;8556;52.218;9.884;2023-02-15T06:24:14;-0.20;99.90
16879;DHT22;8556;52.218;9.884;2023-02-15T06:26:41;-0.20;99.90
16879;DHT22;8556;52.218;9.884;2023-02-15T06:29:08;-0.20;99.90
16879;DHT22;8556;52.218;9.884;2023-02-15T06:31:35;-0.20;99.90
16879;DHT22;8556;52.218;9.884;2023-02-15T06:34:03;-0.10;99.90
16879;DHT22;8556;52.218;9.884;2023-02-15T06:36:30;0.00;99.90
16879;DHT22;8556;52.218;9.884;2023-02-15T06:38:57;0.00;99.90
16879;DHT22;8556;52.218;9.884;2023-02-15T06:41:25;0.10;99.90
16879;DHT22;8556;52.218;9.884;2023-02-15T06:43:51;0.10;99.90
16879;DHT22;8556;52.218;9.884;2023-02-15T06:46:18;0.10;99.90
16879;DHT22;8556;52.218;9.884;2023-02-15T06:48:45;0.00;99.90
16879;DHT22;8556;52.218;9.884;2023-02-15T06:51:13;0.00;99.90
16879;DHT22;8556;52.218;9.884;2023-02-15T06:53:40;-0.10;99.90
16879;DHT22;8556;52.218;9.884;2023-02-15T06:56:09;-0.20;99.90
16879;DHT22;8556;52.218;9.884;2023-02-15T06:58:36;-0.10;99.90
16879;DHT22;8556;52.218;9.884;2023-02-15T07:01:04;-0.10;99.90
16879;DHT22;8556;52.218;9.884;2023-02-15T07:03:32;0.00;99.90
16879;DHT22;8556;52.218;9.884;2023-02-15T07:06:00;0.10;99.90
16879;DHT22;8556;52.218;9.884;2023-02-15T07:08:29;-0.10;99.90
16879;DHT22;8556;52.218;9.884;2023-02-15T07:10:56;-0.10;99.90
16879;DHT22;8556;52.218;9.884;2023-02-15T07:13:43;-0.10;99.90
16879;DHT22;8556;52.218;9.884;2023-02-15T07:16:09;0.00;99.90
16879;DHT22;8556;52.218;9.884;2023-02-15T07:18:36;0.00;99.90
16879;DHT22;8556;52.218;9.884;2023-02-15T07:21:04;0.10;99.90
16879;DHT22;8556;52.218;9.884;2023-02-15T07:23:34;0.20;99.90
16879;DHT22;8556;52.218;9.884;2023-02-15T07:26:01;0.20;99.90
16879;DHT22;8556;52.218;9.884;2023-02-15T07:28:29;0.30;99.90
16879;DHT22;8556;52.218;9.884;2023-02-15T07:30:56;0.30;99.90
16879;DHT22;8556;52.218;9.884;2023-02-15T07:33:23;0.40;99.90
16879;DHT22;8556;52.218;9.884;2023-02-15T07:35:51;0.50;99.90
16879;DHT22;8556;52.218;9.884;2023-02-15T07:38:19;0.50;99.90
16879;DHT22;8556;52.218;9.884;2023-02-15T07:40:50;0.50;99.90
16879;DHT22;8556;52.218;9.884;2023-02-15T07:43:20;0.60;99.90
16879;DHT22;8556;52.218;9.884;2023-02-15T07:45:46;0.70;99.90
16879;DHT22;8556;52.218;9.884;2023-02-15T07:48:13;0.70;99.90
16879;DHT22;8556;52.218;9.884;2023-02-15T07:50:40;1.20;99.90
16879;DHT22;8556;52.218;9.884;2023-02-15T07:53:07;2.10;99.90
16879;DHT22;8556;52.218;9.884;2023-02-15T07:55:34;2.90;99.90
16879;DHT22;8556;52.218;9.884;2023-02-15T07:58:02;3.50;99.90
16879;DHT22;8556;52.218;9.884;2023-02-15T08:00:29;5.10;99.90
16879;DHT22;8556;52.218;9.884;2023-02-15T08:03:15;5.60;99.90
16879;DHT22;8556;52.218;9.884;2023-02-15T08:05:44;5.40;99.90
16879;DHT22;8556;52.218;9.884;2023-02-15T08:08:12;5.70;99.90
16879;DHT22;8556;52.218;9.884;2023-02-15T08:10:58;5.80;99.90
16879;DHT22;8556;52.218;9.884;2023-02-15T08:13:44;5.90;99.90
16879;DHT22;8556;52.218;9.884;2023-02-15T08:16:19;5.70;99.90
16879;DHT22;8556;52.218;9.884;2023-02-15T08:18:46;5.00;99.90
16879;DHT22;8556;52.218;9.884;2023-02-15T08:21:13;4.60;99.90
16879;DHT22;8556;52.218;9.884;2023-02-15T08:23:40;4.00;99.90
16879;DHT22;8556;52.218;9.884;2023-02-15T08:26:07;3.60;99.90
16879;DHT22;8556;52.218;9.884;2023-02-15T08:28:34;3.70;99.90
16879;DHT22;8556;52.218;9.884;2023-02-15T08:31:05;3.80;99.90
16879;DHT22;8556;52.218;9.884;2023-02-15T08:33:32;3.90;99.90
16879;DHT22;8556;52.218;9.884;2023-02-15T08:36:02;4.40;99.90
16879;DHT22;8556;52.218;9.884;2023-02-15T08:38:29;4.80;99.90
16879;DHT22;8556;52.218;9.884;2023-02-15T08:40:56;4.40;99.90
16879;DHT22;8556;52.218;9.884;2023-02-15T08:43:23;4.50;99.90
16879;DHT22;8556;52.218;9.884;2023-02-15T08:45:50;4.50;99.90
16879;DHT22;8556;52.218;9.884;2023-02-15T08:48:18;5.00;99.90
16879;DHT22;8556;52.218;9.884;2023-02-15T08:50:45;5.70;99.90
16879;DHT22;8556;52.218;9.884;2023-02-15T08:53:11;5.60;99.90
16879;DHT22;8556;52.218;9.884;2023-02-15T08:55:39;5.20;99.90
16879;DHT22;8556;52.218;9.884;2023-02-15T08:58:06;5.40;99.90
16879;DHT22;8556;52.218;9.884;2023-02-15T09:00:33;5.10;99.90
16879;DHT22;8556;52.218;9.884;2023-02-15T09:03:00;5.10;99.90
16879;DHT22;8556;52.218;9.884;2023-02-15T09:05:28;5.00;99.90
16879;DHT22;8556;52.218;9.884;2023-02-15T09:07:54;5.60;99.90
16879;DHT22;8556;52.218;9.884;2023-02-15T09:10:21;5.30;99.90
16879;DHT22;8556;52.218;9.884;2023-02-15T09:12:48;5.20;99.90
16879;DHT22;8556;52.218;9.884;2023-02-15T09:15:16;5.10;99.90
16879;DHT22;8556;52.218;9.884;2023-02-15T09:17:43;5.00;99.90
16879;DHT22;8556;52.218;9.884;2023-02-15T09:20:10;5.60;99.90
16879;DHT22;8556;52.218;9.884;2023-02-15T09:22:38;5.60;99.90
16879;DHT22;8556;52.218;9.884;2023-02-15T09:25:06;5.50;99.90
16879;DHT22;8556;52.218;9.884;2023-02-15T09:27:33;5.50;99.90
16879;DHT22;8556;52.218;9.884;2023-02-15T09:29:59;5.50;99.90
16879;DHT22;8556;52.218;9.884;2023-02-15T09:32:26;5.50;99.90
16879;DHT22;8556;52.218;9.884;2023-02-15T09:34:53;5.70;99.90
16879;DHT22;8556;52.218;9.884;2023-02-15T09:37:20;5.60;99.90
16879;DHT22;8556;52.218;9.884;2023-02-15T09:39:48;5.60;99.90
16879;DHT22;8556;52.218;9.884;2023-02-15T09:42:35;5.70;99.90
16879;DHT22;8556;52.218;9.884;2023-02-15T09:45:26;5.60;99.90
16879;DHT22;8556;52.218;9.884;2023-02-15T09:48:21;5.80;99.90
16879;DHT22;8556;52.218;9.884;2023-02-15T09:51:02;6.00;99.90
16879;DHT22;8556;52.218;9.884;2023-02-15T09:53:46;5.80;99.90
16879;DHT22;8556;52.218;9.884;2023-02-15T09:56:23;5.80;99.90
16879;DHT22;8556;52.218;9.884;2023-02-15T09:58:59;5.80;99.90
16879;DHT22;8556;52.218;9.884;2023-02-15T10:01:34;6.00;99.90
16879;DHT22;8556;52.218;9.884;2023-02-15T10:04:30;6.10;99.90
16879;DHT22;8556;52.218;9.884;2023-02-15T10:07:08;6.10;99.90
16879;DHT22;8556;52.218;9.884;2023-02-15T10:09:48;6.40;99.90
16879;DHT22;8556;52.218;9.884;2023-02-15T10:12:44;6.50;99.90
16879;DHT22;8556;52.218;9.884;2023-02-15T10:15:30;6.50;99.90
16879;DHT22;8556;52.218;9.884;2023-02-15T10:18:11;6.90;99.90
16879;DHT22;8556;52.218;9.884;2023-02-15T10:20:48;6.80;99.90
16879;DHT22;8556;52.218;9.884;2023-02-15T10:23:30;6.70;99.90
16879;DHT22;8556;52.218;9.884;2023-02-15T10:26:03;6.90;99.90
16879;DHT22;8556;52.218;9.884;2023-02-15T10:28:36;7.10;99.90
16879;DHT22;8556;52.218;9.884;2023-02-15T10:31:17;7.10;99.90
16879;DHT22;8556;52.218;9.884;2023-02-15T10:33:48;7.00;99.90
16879;DHT22;8556;52.218;9.884;2023-02-15T10:36:31;7.00;99.90
16879;DHT22;8556;52.218;9.884;2023-02-15T10:39:04;7.30;99.90
16879;DHT22;8556;52.218;9.884;2023-02-15T10:41:41;7.40;99.90
16879;DHT22;8556;52.218;9.884;2023-02-15T10:44:23;7.10;99.90
16879;DHT22;8556;52.218;9.884;2023-02-15T10:47:09;7.00;99.90
16879;DHT22;8556;52.218;9.884;2023-02-15T10:52:55;7.40;99.90
16879;DHT22;8556;52.218;9.884;2023-02-15T10:55:33;7.50;99.90
16879;DHT22;8556;52.218;9.884;2023-02-15T10:58:09;7.60;99.90
16879;DHT22;8556;52.218;9.884;2023-02-15T11:00:47;7.70;99.90
16879;DHT22;8556;52.218;9.884;2023-02-15T11:03:27;7.90;99.90
16879;DHT22;8556;52.218;9.884;2023-02-15T11:06:03;8.00;99.90
16879;DHT22;8556;52.218;9.884;2023-02-15T11:08:34;8.10;99.90
16879;DHT22;8556;52.218;9.884;2023-02-15T11:11:05;7.80;99.90
16879;DHT22;8556;52.218;9.884;2023-02-15T11:13:36;8.00;99.90
16879;DHT22;8556;52.218;9.884;2023-02-15T11:16:11;7.80;99.90
16879;DHT22;8556;52.218;9.884;2023-02-15T11:18:41;7.70;99.90
16879;DHT22;8556;52.218;9.884;2023-02-15T11:21:13;7.90;99.90
16879;DHT22;8556;52.218;9.884;2023-02-15T11:23:44;7.90;99.90
16879;DHT22;8556;52.218;9.884;2023-02-15T11:26:15;8.10;99.90
16879;DHT22;8556;52.218;9.884;2023-02-15T11:28:47;8.50;99.90
16879;DHT22;8556;52.218;9.884;2023-02-15T11:31:19;8.20;99.90
16879;DHT22;8556;52.218;9.884;2023-02-15T11:33:51;8.20;99.90
16879;DHT22;8556;52.218;9.884;2023-02-15T11:36:22;8.20;99.90
16879;DHT22;8556;52.218;9.884;2023-02-15T11:38:54;8.30;99.90
16879;DHT22;8556;52.218;9.884;2023-02-15T11:41:25;8.20;99.90
16879;DHT22;8556;52.218;9.884;2023-02-15T11:43:58;8.60;99.90
16879;DHT22;8556;52.218;9.884;2023-02-15T11:46:28;8.70;99.90
16879;DHT22;8556;52.218;9.884;2023-02-15T11:48:55;9.00;99.90
16879;DHT22;8556;52.218;9.884;2023-02-15T11:51:24;9.20;99.90
16879;DHT22;8556;52.218;9.884;2023-02-15T11:53:53;9.20;99.90
16879;DHT22;8556;52.218;9.884;2023-02-15T11:56:21;9.30;99.90
16879;DHT22;8556;52.218;9.884;2023-02-15T11:58:52;9.30;99.90
16879;DHT22;8556;52.218;9.884;2023-02-15T12:01:24;9.60;99.90
16879;DHT22;8556;52.218;9.884;2023-02-15T12:04:23;9.50;99.90
16879;DHT22;8556;52.218;9.884;2023-02-15T12:06:54;9.40;99.90
16879;DHT22;8556;52.218;9.884;2023-02-15T12:09:27;9.40;99.90
16879;DHT22;8556;52.218;9.884;2023-02-15T12:12:21;9.50;99.90
16879;DHT22;8556;52.218;9.884;2023-02-15T12:14:52;9.40;99.90
16879;DHT22;8556;52.218;9.884;2023-02-15T12:17:21;9.80;99.90
16879;DHT22;8556;52.218;9.884;2023-02-15T12:19:50;10.00;99.90
16879;DHT22;8556;52.218;9.884;2023-02-15T12:22:22;9.70;99.90
16879;DHT22;8556;52.218;9.884;2023-02-15T12:24:52;10.00;99.90
16879;DHT22;8556;52.218;9.884;2023-02-15T12:27:22;10.10;99.90
16879;DHT22;8556;52.218;9.884;2023-02-15T12:29:52;10.10;99.90
16879;DHT22;8556;52.218;9.884;2023-02-15T12:32:23;10.10;99.90
16879;DHT22;8556;52.218;9.884;2023-02-15T12:34:51;10.00;99.90
16879;DHT22;8556;52.218;9.884;2023-02-15T12:37:21;10.20;99.90
16879;DHT22;8556;52.218;9.884;2023-02-15T12:39:54;10.70;99.90
16879;DHT22;8556;52.218;9.884;2023-02-15T12:42:23;11.90;99.90
16879;DHT22;8556;52.218;9.884;2023-02-15T12:44:56;12.40;99.90
16879;DHT22;8556;52.218;9.884;2023-02-15T12:47:23;13.00;99.90
16879;DHT22;8556;52.218;9.884;2023-02-15T12:50:07;13.20;99.90
16879;DHT22;8556;52.218;9.884;2023-02-15T12:52:42;14.00;99.90
16879;DHT22;8556;52.218;9.884;2023-02-15T12:55:11;13.40;99.90
16879;DHT22;8556;52.218;9.884;2023-02-15T12:57:48;13.10;99.90
16879;DHT22;8556;52.218;9.884;2023-02-15T13:00:27;13.20;99.90
16879;DHT22;8556;52.218;9.884;2023-02-15T13:02:58;12.60;99.90
16879;DHT22;8556;52.218;9.884;2023-02-15T13:05:30;13.00;99.90
16879;DHT22;8556;52.218;9.884;2023-02-15T13:07:59;13.40;99.90
16879;DHT22;8556;52.218;9.884;2023-02-15T13:10:28;13.40;99.90
16879;DHT22;8556;52.218;9.884;2023-02-15T13:12:57;13.00;99.90
16879;DHT22;8556;52.218;9.884;2023-02-15T13:15:32;13.00;99.90
16879;DHT22;8556;52.218;9.884;2023-02-15T13:18:17;13.30;99.90
16879;DHT22;8556;52.218;9.884;2023-02-15T13:20:46;12.90;99.90
16879;DHT22;8556;52.218;9.884;2023-02-15T13:23:28;13.00;99.90
16879;DHT22;8556;52.218;9.884;2023-02-15T13:25:58;13.00;99.90
16879;DHT22;8556;52.218;9.884;2023-02-15T13:28:35;12.70;99.90
16879;DHT22;8556;52.218;9.884;2023-02-15T13:31:12;12.80;99.90
16879;DHT22;8556;52.218;9.884;2023-02-15T13:33:43;13.00;99.90
16879;DHT22;8556;52.218;9.884;2023-02-15T13:36:16;12.30;99.90
16879;DHT22;8556;52.218;9.884;2023-02-15T13:38:51;12.30;99.90
16879;DHT22;8556;52.218;9.884;2023-02-15T13:41:27;11.80;99.90
16879;DHT22;8556;52.218;9.884;2023-02-15T13:44:07;11.00;99.90
16879;DHT22;8556;52.218;9.884;2023-02-15T13:47:02;10.60;99.90
16879;DHT22;8556;52.218;9.884;2023-02-15T13:49:43;10.60;99.90
16879;DHT22;8556;52.218;9.884;2023-02-15T13:52:18;10.40;99.90
16879;DHT22;8556;52.218;9.884;2023-02-15T13:55:09;10.60;99.90
16879;DHT22;8556;52.218;9.884;2023-02-15T14:01:02;10.40;99.90
16879;DHT22;8556;52.218;9.884;2023-02-15T14:03:58;10.60;99.90
16879;DHT22;8556;52.218;9.884;2023-02-15T14:06:41;10.40;99.90
16879;DHT22;8556;52.218;9.884;2023-02-15T14:09:20;10.20;99.90
16879;DHT22;8556;52.218;9.884;2023-02-15T14:11:55;10.40;99.90
16879;DHT22;8556;52.218;9.884;2023-02-15T14:14:39;10.20;99.90
16879;DHT22;8556;52.218;9.884;2023-02-15T14:17:18;10.40;99.90
16879;DHT22;8556;52.218;9.884;2023-02-15T14:19:54;10.40;99.90
16879;DHT22;8556;52.218;9.884;2023-02-15T14:22:31;10.10;99.90
16879;DHT22;8556;52.218;9.884;2023-02-15T14:25:17;10.00;99.90
16879;DHT22;8556;52.218;9.884;2023-02-15T14:27:56;9.80;99.90
16879;DHT22;8556;52.218;9.884;2023-02-15T14:30:31;9.80;99.90
16879;DHT22;8556;52.218;9.884;2023-02-15T14:33:04;9.80;99.90
16879;DHT22;8556;52.218;9.884;2023-02-15T14:35:35;9.70;1.00
16879;DHT22;8556;52.218;9.884;2023-02-15T14:38:11;9.80;1.00
16879;DHT22;8556;52.218;9.884;2023-02-15T14:40:51;9.60;1.00
16879;DHT22;8556;52.218;9.884;2023-02-15T14:43:47;9.50;1.00
16879;DHT22;8556;52.218;9.884;2023-02-15T14:46:22;9.30;1.00
16879;DHT22;8556;52.218;9.884;2023-02-15T14:48:55;9.50;1.00
16879;DHT22;8556;52.218;9.884;2023-02-15T14:51:54;9.40;1.00
16879;DHT22;8556;52.218;9.884;2023-02-15T14:54:59;9.40;8.00
16879;DHT22;8556;52.218;9.884;2023-02-15T14:57:35;9.30;1.00
16879;DHT22;8556;52.218;9.884;2023-02-15T15:03:20;9.30;53.80
16879;DHT22;8556;52.218;9.884;2023-02-15T15:05:52;9.10;99.90
16879;DHT22;8556;52.218;9.884;2023-02-15T15:08:28;9.30;99.90
16879;DHT22;8556;52.218;9.884;2023-02-15T15:10:56;9.20;99.90
16879;DHT22;8556;52.218;9.884;2023-02-15T15:13:52;9.40;99.90
16879;DHT22;8556;52.218;9.884;2023-02-15T15:16:46;9.20;99.90
16879;DHT22;8556;52.218;9.884;2023-02-15T15:22:42;9.10;99.90
16879;DHT22;8556;52.218;9.884;2023-02-15T15:25:41;9.20;99.90
16879;DHT22;8556;52.218;9.884;2023-02-15T15:28:09;9.10;99.90
16879;DHT22;8556;52.218;9.884;2023-02-15T15:31:01;9.10;99.90
16879;DHT22;8556;52.218;9.884;2023-02-15T15:34:02;9.00;99.90
16879;DHT22;8556;52.218;9.884;2023-02-15T15:42:50;8.90;99.90
16879;DHT22;8556;52.218;9.884;2023-02-15T15:48:30;8.80;99.90
16879;DHT22;8556;52.218;9.884;2023-02-15T15:51:03;8.70;99.90
16879;DHT22;8556;52.218;9.884;2023-02-15T15:53:37;8.70;99.90
16879;DHT22;8556;52.218;9.884;2023-02-15T15:56:11;8.70;99.90
16879;DHT22;8556;52.218;9.884;2023-02-15T15:58:45;8.60;99.90
16879;DHT22;8556;52.218;9.884;2023-02-15T16:01:12;8.50;99.90
16879;DHT22;8556;52.218;9.884;2023-02-15T16:03:49;8.50;99.90
16879;DHT22;8556;52.218;9.884;2023-02-15T16:06:33;8.40;99.90
16879;DHT22;8556;52.218;9.884;2023-02-15T16:09:13;8.30;99.90
16879;DHT22;8556;52.218;9.884;2023-02-15T16:11:49;8.10;99.90
16879;DHT22;8556;52.218;9.884;2023-02-15T16:14:24;8.00;99.90
16879;DHT22;8556;52.218;9.884;2023-02-15T16:16:54;7.90;99.90
16879;DHT22;8556;52.218;9.884;2023-02-15T16:19:26;7.80;99.90
16879;DHT22;8556;52.218;9.884;2023-02-15T16:21:54;7.60;99.90
16879;DHT22;8556;52.218;9.884;2023-02-15T16:24:50;7.50;99.90
16879;DHT22;8556;52.218;9.884;2023-02-15T16:27:36;7.40;99.90
16879;DHT22;8556;52.218;9.884;2023-02-15T16:30:33;7.30;99.90
16879;DHT22;8556;52.218;9.884;2023-02-15T16:33:05;7.30;99.90
16879;DHT22;8556;52.218;9.884;2023-02-15T16:35:34;7.20;99.90
16879;DHT22;8556;52.218;9.884;2023-02-15T16:38:04;7.20;99.90
16879;DHT22;8556;52.218;9.884;2023-02-15T16:40:39;7.20;99.90
16879;DHT22;8556;52.218;9.884;2023-02-15T16:43:18;7.10;99.90
16879;DHT22;8556;52.218;9.884;2023-02-15T16:45:49;6.90;99.90
16879;DHT22;8556;52.218;9.884;2023-02-15T16:48:21;6.80;99.90
16879;DHT22;8556;52.218;9.884;2023-02-15T16:50:53;6.70;99.90
16879;DHT22;8556;52.218;9.884;2023-02-15T16:53:25;6.60;99.90
16879;DHT22;8556;52.218;9.884;2023-02-15T16:55:59;6.50;99.90
16879;DHT22;8556;52.218;9.884;2023-02-15T16:58:30;6.10;99.90
16879;DHT22;8556;52.218;9.884;2023-02-15T17:01:06;6.00;99.90
16879;DHT22;8556;52.218;9.884;2023-02-15T17:03:42;6.00;99.90
16879;DHT22;8556;52.218;9.884;2023-02-15T17:06:20;6.00;99.90